createdAt,value
2019-04-16T00:02:27.846Z,14.83
2019-04-16T00:05:06.241Z,14.17
2019-04-16T00:07:40.540Z,14.80
2019-04-16T00:10:17.657Z,14.13
2019-04-16T00:13:08.145Z,13.03
2019-04-16T00:15:41.375Z,12.17
2019-04-16T00:18:18.516Z,12.73
2019-04-16T00:21:10.062Z,10.90
2019-04-16T00:23:46.674Z,11.20
2019-04-16T00:26:19.387Z,10.50
2019-04-16T00:28:51.931Z,11.03
2019-04-16T00:31:24.652Z,11.27
2019-04-16T00:33:57.427Z,11.30
2019-04-16T00:36:29.997Z,10.50
2019-04-16T00:39:02.512Z,10.87
2019-04-16T00:41:36.891Z,11.07
2019-04-16T00:44:09.664Z,10.53
2019-04-16T00:46:42.181Z,10.63
2019-04-16T00:49:14.808Z,12.00
2019-04-16T00:51:47.598Z,11.07
2019-04-16T00:54:20.351Z,10.60
2019-04-16T00:56:52.883Z,11.10
2019-04-16T00:59:25.431Z,10.90
2019-04-16T01:01:58.215Z,10.00
2019-04-16T01:04:30.975Z,11.77
2019-04-16T01:07:05.010Z,11.23
2019-04-16T01:09:37.802Z,11.63
2019-04-16T01:12:10.570Z,10.83
2019-04-16T01:14:43.256Z,11.00
2019-04-16T01:17:17.371Z,10.63
2019-04-16T01:19:50.051Z,10.63
2019-04-16T01:22:22.534Z,10.13
2019-04-16T01:24:55.281Z,10.03
2019-04-16T01:27:35.465Z,10.70
2019-04-16T01:30:10.701Z,10.13
2019-04-16T01:32:53.205Z,11.10
2019-04-16T01:35:43.588Z,10.10
2019-04-16T01:38:20.641Z,11.47
2019-04-16T01:40:54.995Z,10.77
2019-04-16T01:43:27.575Z,15.87
2019-04-16T01:46:01.477Z,16.47
2019-04-16T01:48:38.678Z,13.77
2019-04-16T01:51:08.874Z,12.30
2019-04-16T01:53:41.495Z,14.00
2019-04-16T01:56:17.271Z,11.70
2019-04-16T01:58:49.806Z,10.80
2019-04-16T02:01:22.538Z,10.40
2019-04-16T02:03:55.256Z,10.57
2019-04-16T02:06:27.814Z,10.00
2019-04-16T02:09:02.996Z,9.57
2019-04-16T02:11:38.859Z,9.87
2019-04-16T02:14:10.649Z,8.80
2019-04-16T02:16:43.161Z,9.67
2019-04-16T02:19:15.641Z,9.60
2019-04-16T02:21:48.166Z,10.10
2019-04-16T02:24:20.681Z,9.63
2019-04-16T02:26:54.810Z,9.53
2019-04-16T02:29:30.556Z,9.67
2019-04-16T02:32:01.948Z,9.57
2019-04-16T02:34:34.676Z,9.73
2019-04-16T02:37:07.462Z,10.33
2019-04-16T02:39:48.984Z,8.73
2019-04-16T02:42:14.866Z,9.17
2019-04-16T02:44:50.196Z,10.27
2019-04-16T02:47:22.276Z,9.17
2019-04-16T02:49:56.834Z,10.00
2019-04-16T02:52:31.604Z,9.33
2019-04-16T02:55:22.152Z,9.13
2019-04-16T02:58:15.546Z,9.67
2019-04-16T03:01:06.000Z,9.47
2019-04-16T03:03:43.535Z,9.47
2019-04-16T03:06:16.475Z,8.33
2019-04-16T03:08:49.416Z,10.00
2019-04-16T03:11:21.931Z,9.60
2019-04-16T03:13:58.235Z,9.27
2019-04-16T03:16:47.106Z,9.27
2019-04-16T03:19:24.606Z,8.83
2019-04-16T03:21:59.079Z,8.27
2019-04-16T03:24:31.851Z,9.30
2019-04-16T03:27:05.886Z,7.80
2019-04-16T03:29:38.660Z,8.50
2019-04-16T03:32:14.306Z,10.03
2019-04-16T03:34:45.806Z,8.67
2019-04-16T03:37:18.622Z,9.13
2019-04-16T03:39:51.406Z,9.90
2019-04-16T03:42:24.504Z,9.40
2019-04-16T03:44:58.816Z,9.37
2019-04-16T03:47:31.385Z,9.90
2019-04-16T03:50:05.100Z,9.83
2019-04-16T03:52:40.922Z,9.13
2019-04-16T03:55:12.176Z,10.20
2019-04-16T03:57:44.946Z,10.30
2019-04-16T04:00:17.928Z,9.40
2019-04-16T04:02:54.220Z,9.27
2019-04-16T04:05:24.933Z,11.20
2019-04-16T04:07:57.524Z,11.97
2019-04-16T04:10:31.337Z,13.70
2019-04-16T04:13:05.026Z,14.67
2019-04-16T04:15:38.141Z,12.73
2019-04-16T04:18:12.596Z,13.70
2019-04-16T04:20:49.616Z,13.07
2019-04-16T04:23:19.631Z,15.07
2019-04-16T04:25:52.271Z,13.63
2019-04-16T04:28:24.976Z,15.33
2019-04-16T04:31:00.395Z,16.83
2019-04-16T04:33:40.954Z,32.63
2019-04-16T04:36:12.478Z,32.40
2019-04-16T04:38:45.145Z,46.80
2019-04-16T04:41:19.889Z,29.67
2019-04-16T04:43:51.941Z,24.47
2019-04-16T04:46:24.601Z,50.50
2019-04-16T04:49:00.033Z,80.10
2019-04-16T04:51:31.451Z,44.53
2019-04-16T04:54:04.241Z,31.27
2019-04-16T04:56:36.837Z,24.00
2019-04-16T04:59:09.321Z,21.80
2019-04-16T05:01:42.728Z,17.03
2019-04-16T05:04:19.479Z,17.67
2019-04-16T05:07:04.866Z,16.53
2019-04-16T05:09:37.761Z,15.33
2019-04-16T05:12:10.229Z,15.00
2019-04-16T05:14:57.114Z,15.07
2019-04-16T05:17:29.925Z,15.83
2019-04-16T05:20:02.290Z,15.67
2019-04-16T05:22:34.886Z,14.27
2019-04-16T05:25:08.056Z,13.63
2019-04-16T05:27:41.882Z,13.77
2019-04-16T05:30:19.961Z,14.07
2019-04-16T05:32:49.551Z,12.03
2019-04-16T05:35:22.061Z,12.37
2019-04-16T05:37:54.490Z,13.57
2019-04-16T05:40:28.023Z,13.97
2019-04-16T05:43:01.265Z,13.57
2019-04-16T05:45:34.500Z,17.10
2019-04-16T05:48:08.427Z,15.57
2019-04-16T05:50:41.006Z,15.13
2019-04-16T05:53:13.951Z,17.20
2019-04-16T05:55:50.871Z,14.77
2019-04-16T05:58:23.739Z,15.03
2019-04-16T06:01:03.696Z,16.07
2019-04-16T06:03:36.281Z,15.27
2019-04-16T06:06:09.138Z,16.60
2019-04-16T06:08:42.051Z,17.27
2019-04-16T06:11:27.658Z,17.57
2019-04-16T06:13:56.526Z,17.37
2019-04-16T06:16:33.806Z,17.87
2019-04-16T06:19:08.538Z,18.43
2019-04-16T06:22:00.686Z,19.90
2019-04-16T06:24:36.125Z,19.03
2019-04-16T06:27:13.456Z,21.13
2019-04-16T06:30:04.418Z,20.30
2019-04-16T06:32:50.450Z,19.90
2019-04-16T06:35:43.339Z,20.57
2019-04-16T06:38:19.616Z,21.47
2019-04-16T06:41:07.411Z,21.87
2019-04-16T06:43:45.107Z,20.50
2019-04-16T06:46:39.478Z,20.73
2019-04-16T06:49:18.765Z,20.53
2019-04-16T06:52:12.455Z,22.17
2019-04-16T06:54:55.162Z,20.53
2019-04-16T06:57:33.474Z,22.70
2019-04-16T07:00:26.953Z,21.00
2019-04-16T07:03:03.054Z,21.70
2019-04-16T07:05:37.407Z,20.63
2019-04-16T07:08:36.530Z,20.80
2019-04-16T07:11:01.707Z,20.07
2019-04-16T07:13:41.974Z,22.57
2019-04-16T07:16:12.245Z,20.37
2019-04-16T07:18:46.620Z,21.53
2019-04-16T07:21:25.216Z,21.33
2019-04-16T07:23:58.587Z,20.53
2019-04-16T07:26:31.351Z,21.13
2019-04-16T07:29:08.576Z,20.20
2019-04-16T07:31:42.713Z,19.70
2019-04-16T07:34:43.440Z,19.13
2019-04-16T07:37:33.168Z,19.87
2019-04-16T07:40:41.336Z,19.23
2019-04-16T07:43:32.856Z,19.50
2019-04-16T07:46:15.656Z,19.27
2019-04-16T07:48:54.685Z,18.17
2019-04-16T07:51:49.276Z,17.90
2019-04-16T07:54:57.235Z,17.00
2019-04-16T07:57:47.076Z,17.53
2019-04-16T08:00:21.296Z,17.37
2019-04-16T08:03:12.155Z,17.13
2019-04-16T08:06:02.180Z,15.37
2019-04-16T08:08:34.657Z,15.37
2019-04-16T08:11:16.398Z,14.87
2019-04-16T08:13:51.917Z,14.97
2019-04-16T08:16:47.567Z,16.03
2019-04-16T08:19:16.269Z,14.67
2019-04-16T08:22:06.550Z,14.30
2019-04-16T08:24:43.297Z,15.23
2019-04-16T08:27:19.195Z,14.87
2019-04-16T08:29:52.156Z,12.33
2019-04-16T08:32:27.116Z,14.23
2019-04-16T08:34:59.496Z,12.23
2019-04-16T08:37:49.641Z,12.70
2019-04-16T08:40:31.337Z,11.60
2019-04-16T08:43:03.756Z,12.63
2019-04-16T08:45:54.455Z,11.07
2019-04-16T08:48:48.923Z,10.70
2019-04-16T08:51:30.747Z,11.10
2019-04-16T08:53:57.898Z,10.07
2019-04-16T08:56:30.235Z,10.60
2019-04-16T08:59:19.837Z,11.50
2019-04-16T09:02:07.580Z,12.00
2019-04-16T09:04:55.415Z,12.33
2019-04-16T09:07:40.295Z,10.70
2019-04-16T09:10:23.297Z,11.23
2019-04-16T09:13:03.257Z,10.13
2019-04-16T09:15:36.536Z,9.97
2019-04-16T09:18:22.636Z,9.23
2019-04-16T09:20:57.656Z,9.23
2019-04-16T09:23:30.136Z,8.80
2019-04-16T09:26:23.671Z,10.30
2019-04-16T09:29:06.436Z,8.83
2019-04-16T09:31:55.450Z,9.90
2019-04-16T09:34:29.497Z,9.00
2019-04-16T09:37:03.526Z,7.73
2019-04-16T09:39:55.957Z,7.70
2019-04-16T09:42:31.170Z,7.50
2019-04-16T09:45:05.807Z,7.20
2019-04-16T09:47:38.297Z,8.43
2019-04-16T09:50:14.182Z,8.37
2019-04-16T09:53:04.440Z,8.57
2019-04-16T09:55:55.416Z,8.20
2019-04-16T09:58:45.221Z,6.83
2019-04-16T10:01:25.436Z,6.47
2019-04-16T10:04:17.318Z,6.77
2019-04-16T10:06:49.796Z,6.63
2019-04-16T10:09:28.026Z,7.37
2019-04-16T10:12:05.051Z,7.03
2019-04-16T10:14:37.021Z,7.80
2019-04-16T10:17:13.451Z,9.03
2019-04-16T10:19:48.557Z,7.00
2019-04-16T10:22:20.796Z,7.10
2019-04-16T10:25:14.916Z,7.17
2019-04-16T10:28:05.877Z,7.80
2019-04-16T10:30:42.776Z,6.73
2019-04-16T10:33:16.321Z,6.70
2019-04-16T10:35:48.855Z,8.27
2019-04-16T10:38:36.841Z,7.13
2019-04-16T10:41:24.009Z,7.63
2019-04-16T10:44:14.302Z,8.00
2019-04-16T10:47:04.778Z,7.37
2019-04-16T10:49:41.709Z,6.87
2019-04-16T10:52:34.947Z,5.90
2019-04-16T10:55:29.237Z,8.17
2019-04-16T10:58:31.046Z,6.93
2019-04-16T11:01:38.819Z,7.20
2019-04-16T11:04:19.657Z,6.53
2019-04-16T11:07:10.796Z,7.23
2019-04-16T11:09:43.576Z,8.37
2019-04-16T11:12:19.740Z,8.20
2019-04-16T11:14:51.549Z,7.97
2019-04-16T11:17:41.456Z,7.57
2019-04-16T11:20:13.891Z,7.93
2019-04-16T11:23:06.872Z,6.83
2019-04-16T11:25:46.346Z,6.50
2019-04-16T11:28:35.918Z,7.47
2019-04-16T11:31:10.672Z,6.40
2019-04-16T11:34:00.407Z,6.43
2019-04-16T11:36:41.998Z,6.83
2019-04-16T11:39:14.482Z,6.43
2019-04-16T11:42:04.601Z,6.80
2019-04-16T11:44:45.972Z,6.40
2019-04-16T11:47:37.953Z,5.77
2019-04-16T11:50:10.193Z,6.07
2019-04-16T11:52:42.677Z,6.60
2019-04-16T11:55:15.196Z,6.73
2019-04-16T11:57:47.711Z,6.57
2019-04-16T12:00:38.722Z,5.93
2019-04-16T12:03:34.894Z,6.30
2019-04-16T12:06:28.533Z,5.90
2019-04-16T12:09:01.773Z,5.87
2019-04-16T12:11:42.838Z,6.47
2019-04-16T12:14:43.642Z,6.53
2019-04-16T12:17:25.254Z,5.83
2019-04-16T12:20:09.334Z,5.27
2019-04-16T12:22:50.614Z,5.70
2019-04-16T12:25:44.994Z,6.37
2019-04-16T12:28:42.295Z,5.07
2019-04-16T12:31:11.699Z,5.73
2019-04-16T12:34:00.262Z,5.87
2019-04-16T12:36:47.449Z,5.90
2019-04-16T12:39:25.860Z,5.43
2019-04-16T12:42:11.432Z,5.60
2019-04-16T12:44:50.980Z,5.40
2019-04-16T12:47:34.152Z,5.63
2019-04-16T12:50:17.472Z,5.57
2019-04-16T12:53:11.866Z,5.40
2019-04-16T12:55:51.774Z,6.27
2019-04-16T12:58:25.928Z,6.60
2019-04-16T13:01:19.739Z,5.73
2019-04-16T13:04:09.932Z,6.23
2019-04-16T13:07:13.951Z,6.83
2019-04-16T13:10:08.134Z,6.77
2019-04-16T13:12:46.131Z,7.00
2019-04-16T13:15:22.807Z,6.40
2019-04-16T13:18:02.551Z,6.20
2019-04-16T13:20:52.932Z,11.23
2019-04-16T13:23:32.792Z,7.07
2019-04-16T13:26:23.059Z,6.30
2019-04-16T13:28:56.282Z,8.13
2019-04-16T13:31:28.987Z,8.27
2019-04-16T13:34:04.539Z,6.93
2019-04-16T13:36:36.892Z,10.30
2019-04-16T13:39:25.228Z,6.67
2019-04-16T13:41:57.656Z,7.03
2019-04-16T13:44:51.127Z,6.17
2019-04-16T13:47:23.863Z,7.00
2019-04-16T13:50:06.686Z,6.77
2019-04-16T13:52:45.446Z,7.63
2019-04-16T13:55:31.826Z,10.00
2019-04-16T13:58:09.242Z,9.20
2019-04-16T14:00:49.489Z,9.30
2019-04-16T14:03:25.013Z,9.47
2019-04-16T14:05:57.812Z,6.27
2019-04-16T14:08:30.628Z,8.33
2019-04-16T14:11:03.544Z,6.03
2019-04-16T14:13:36.501Z,7.63
2019-04-16T14:16:12.714Z,6.53
2019-04-16T14:18:45.182Z,6.67
2019-04-16T14:21:18.162Z,7.07
2019-04-16T14:23:51.461Z,6.70
2019-04-16T14:26:24.163Z,6.70
2019-04-16T14:28:56.980Z,5.47
2019-04-16T14:31:29.561Z,8.13
2019-04-16T14:34:16.002Z,6.10
2019-04-16T14:36:48.582Z,8.60
2019-04-16T14:39:33.066Z,7.70
2019-04-16T14:42:05.946Z,9.83
2019-04-16T14:44:46.062Z,7.60
2019-04-16T14:47:19.031Z,6.53
2019-04-16T14:49:51.702Z,6.37
2019-04-16T14:52:24.617Z,9.00
2019-04-16T14:55:02.018Z,7.23
2019-04-16T14:57:36.421Z,9.20
2019-04-16T15:00:20.905Z,12.20
2019-04-16T15:02:58.282Z,8.23
2019-04-16T15:05:35.551Z,8.90
2019-04-16T15:08:25.242Z,9.77
2019-04-16T15:11:09.597Z,9.27
2019-04-16T15:13:49.892Z,9.77
2019-04-16T15:16:27.134Z,10.57
2019-04-16T15:19:18.288Z,10.77
2019-04-16T15:22:08.729Z,13.40
2019-04-16T15:24:43.267Z,10.20
2019-04-16T15:27:20.236Z,9.63
2019-04-16T15:29:56.478Z,12.70
2019-04-16T15:32:37.832Z,8.10
2019-04-16T15:35:18.478Z,11.03
2019-04-16T15:37:59.256Z,11.27
2019-04-16T15:40:39.286Z,10.13
2019-04-16T15:43:27.116Z,8.20
2019-04-16T15:46:07.157Z,8.50
2019-04-16T15:48:53.887Z,10.60
2019-04-16T15:51:28.471Z,9.60
2019-04-16T15:54:14.486Z,10.63
2019-04-16T15:56:59.357Z,8.93
2019-04-16T15:59:36.943Z,9.23
2019-04-16T16:02:26.932Z,9.00
2019-04-16T16:05:01.298Z,10.50
2019-04-16T16:07:35.092Z,9.00
2019-04-16T16:10:13.686Z,9.63
2019-04-16T16:12:44.561Z,13.03
2019-04-16T16:15:17.303Z,11.77
2019-04-16T16:17:50.001Z,13.60
2019-04-16T16:20:23.176Z,10.87
2019-04-16T16:22:58.395Z,13.47
2019-04-16T16:25:30.446Z,14.70
2019-04-16T16:28:04.106Z,14.87
2019-04-16T16:30:37.097Z,11.33
2019-04-16T16:33:10.192Z,15.30
2019-04-16T16:35:56.947Z,23.97
2019-04-16T16:38:20.636Z,12.00
2019-04-16T16:40:52.321Z,10.83
2019-04-16T16:43:24.892Z,16.37
2019-04-16T16:46:15.552Z,16.83
2019-04-16T16:48:49.309Z,10.87
2019-04-16T16:51:23.091Z,13.03
2019-04-16T16:54:03.574Z,14.63
2019-04-16T16:56:43.882Z,16.27
2019-04-16T16:59:18.551Z,27.33
2019-04-16T17:02:10.362Z,25.73
2019-04-16T17:04:44.767Z,22.87
2019-04-16T17:07:18.053Z,23.47
2019-04-16T17:09:50.927Z,21.57
2019-04-16T17:12:23.780Z,20.43
2019-04-16T17:14:56.587Z,27.57
2019-04-16T17:17:29.281Z,30.40
2019-04-16T17:20:02.171Z,49.43
2019-04-16T17:22:35.184Z,34.67
2019-04-16T17:25:11.701Z,45.30
2019-04-16T17:27:51.036Z,40.00
2019-04-16T17:30:18.085Z,34.37
2019-04-16T17:32:50.837Z,81.67
2019-04-16T17:35:23.803Z,58.87
2019-04-16T17:38:01.549Z,40.37
2019-04-16T17:40:33.205Z,36.57
2019-04-16T17:43:16.713Z,56.60
2019-04-16T17:45:51.078Z,62.30
2019-04-16T17:48:28.879Z,72.80
2019-04-16T17:51:03.492Z,44.20
2019-04-16T17:53:40.792Z,59.10
2019-04-16T17:56:33.772Z,60.17
2019-04-16T17:59:08.355Z,52.93
2019-04-16T18:01:58.699Z,50.33
2019-04-16T18:04:51.845Z,51.43
2019-04-16T18:07:38.521Z,59.23
2019-04-16T18:10:26.721Z,54.57
2019-04-16T18:12:59.047Z,36.23
2019-04-16T18:15:36.228Z,56.63
2019-04-16T18:18:16.950Z,72.83
2019-04-16T18:21:07.087Z,25.73
2019-04-16T18:23:56.902Z,15.03
2019-04-16T18:26:37.532Z,13.90
2019-04-16T18:29:12.687Z,13.43
2019-04-16T18:31:52.518Z,13.13
2019-04-16T18:34:24.482Z,9.43
2019-04-16T18:36:59.632Z,10.70
2019-04-16T18:39:50.312Z,19.87
2019-04-16T18:42:24.837Z,22.80
2019-04-16T18:44:59.256Z,57.40
2019-04-16T18:47:40.022Z,40.20
2019-04-16T18:50:22.182Z,21.30
2019-04-16T18:52:52.392Z,26.97
2019-04-16T18:55:25.122Z,18.00
2019-04-16T18:57:57.906Z,14.20
2019-04-16T19:00:44.652Z,13.53
2019-04-16T19:03:18.156Z,14.53
2019-04-16T19:05:50.976Z,22.77
2019-04-16T19:08:23.752Z,25.43
2019-04-16T19:10:56.508Z,41.63
2019-04-16T19:13:29.175Z,33.00
2019-04-16T19:16:01.972Z,43.90
2019-04-16T19:18:34.627Z,64.10
2019-04-16T19:21:07.796Z,61.30
2019-04-16T19:23:40.396Z,48.33
2019-04-16T19:26:13.332Z,44.57
2019-04-16T19:28:46.065Z,37.03
2019-04-16T19:31:22.846Z,35.77
2019-04-16T19:33:53.184Z,43.60
2019-04-16T19:36:27.489Z,50.67
2019-04-16T19:39:00.336Z,53.40
2019-04-16T19:41:33.421Z,63.57
2019-04-16T19:44:07.836Z,67.33
2019-04-16T19:46:41.166Z,84.50
2019-04-16T19:49:14.046Z,70.53
2019-04-16T19:51:46.942Z,95.57
2019-04-16T19:54:20.012Z,151.33
2019-04-16T19:56:52.823Z,121.10
2019-04-16T19:59:25.727Z,96.17
2019-04-16T20:02:00.251Z,79.20
2019-04-16T20:04:33.598Z,80.30
2019-04-16T20:07:06.946Z,77.43
2019-04-16T20:09:40.151Z,68.10
2019-04-16T20:12:12.818Z,70.43
2019-04-16T20:14:45.651Z,77.00
2019-04-16T20:17:18.427Z,70.57
2019-04-16T20:19:59.312Z,58.70
2019-04-16T20:22:33.187Z,52.17
2019-04-16T20:25:07.304Z,55.73
2019-04-16T20:27:40.813Z,47.40
2019-04-16T20:30:15.007Z,47.63
2019-04-16T20:32:47.971Z,67.80
2019-04-16T20:35:20.704Z,57.57
2019-04-16T20:37:55.054Z,46.40
2019-04-16T20:40:27.806Z,95.97
2019-04-16T20:43:00.496Z,52.93
2019-04-16T20:45:33.501Z,54.87
2019-04-16T20:48:09.122Z,68.03
2019-04-16T20:50:40.752Z,36.73
2019-04-16T20:53:13.206Z,36.10
2019-04-16T20:55:47.425Z,32.57
2019-04-16T20:58:21.599Z,41.83
2019-04-16T21:00:55.833Z,35.73
2019-04-16T21:03:31.048Z,38.77
2019-04-16T21:06:07.448Z,29.93
2019-04-16T21:08:36.826Z,25.50
2019-04-16T21:11:09.820Z,28.33
2019-04-16T21:13:42.756Z,27.57
2019-04-16T21:16:15.711Z,29.23
2019-04-16T21:18:48.272Z,36.07
2019-04-16T21:21:23.468Z,26.93
2019-04-16T21:23:55.419Z,30.27
2019-04-16T21:26:27.961Z,25.00
2019-04-16T21:29:05.054Z,26.53
2019-04-16T21:31:47.015Z,26.63
2019-04-16T21:34:24.253Z,25.50
2019-04-16T21:36:57.591Z,23.17
2019-04-16T21:39:31.732Z,24.60
2019-04-16T21:42:04.262Z,24.43
2019-04-16T21:44:36.999Z,21.37
2019-04-16T21:47:09.531Z,21.57
2019-04-16T21:49:45.061Z,20.83
2019-04-16T21:52:16.736Z,22.80
2019-04-16T21:54:49.036Z,21.70
2019-04-16T21:57:21.753Z,19.77
2019-04-16T21:59:58.101Z,24.73
2019-04-16T22:02:34.598Z,22.77
2019-04-16T22:05:08.972Z,20.00
2019-04-16T22:07:41.551Z,20.33
2019-04-16T22:10:14.275Z,19.40
2019-04-16T22:12:47.684Z,19.23
2019-04-16T22:15:25.205Z,22.00
2019-04-16T22:17:55.919Z,20.93
2019-04-16T22:20:28.520Z,21.67
2019-04-16T22:23:01.306Z,20.80
2019-04-16T22:25:33.901Z,23.23
2019-04-16T22:28:11.747Z,21.37
2019-04-16T22:30:40.681Z,22.17
2019-04-16T22:33:13.461Z,20.83
2019-04-16T22:35:46.016Z,18.83
2019-04-16T22:38:18.771Z,20.90
2019-04-16T22:41:07.776Z,19.17
2019-04-16T22:43:57.977Z,17.57
2019-04-16T22:46:34.723Z,17.47
2019-04-16T22:49:07.416Z,15.80
2019-04-16T22:51:43.228Z,17.03
2019-04-16T22:54:17.635Z,16.23
2019-04-16T22:57:02.557Z,16.03
2019-04-16T22:59:39.123Z,16.77
2019-04-16T23:02:13.799Z,16.03
2019-04-16T23:04:44.986Z,15.00
2019-04-16T23:07:17.576Z,15.77
2019-04-16T23:09:50.331Z,15.53
2019-04-16T23:12:27.177Z,14.93
2019-04-16T23:14:58.481Z,14.50
2019-04-16T23:17:31.151Z,16.70
2019-04-16T23:20:04.691Z,17.73
2019-04-16T23:22:37.101Z,15.73
2019-04-16T23:25:09.860Z,17.13
2019-04-16T23:27:42.581Z,17.10
2019-04-16T23:30:18.512Z,16.70
2019-04-16T23:32:50.506Z,15.30
2019-04-16T23:35:24.990Z,16.63
2019-04-16T23:37:59.502Z,15.30
2019-04-16T23:40:32.396Z,15.97
2019-04-16T23:43:06.541Z,17.00
2019-04-16T23:45:40.562Z,17.07
2019-04-16T23:48:17.453Z,15.67
2019-04-16T23:50:59.111Z,16.97
2019-04-16T23:53:38.122Z,17.23
2019-04-16T23:56:14.466Z,18.13
2019-04-16T23:58:48.647Z,18.37
